Time;durP1;ratioP1;P1;durP2;ratioP2;P2;SDS_P1;SDS_P2;PMS_P1;PMS_P2;Temp;Humidity;BMP_temperature;BMP_pressure;BME280_temperature;BME280_humidity;BME280_pressure;Samples;Min_cycle;Max_cycle;Signal;HPM_P1;HPM_P2
2023/12/14 02:02:17;;;;;;;0.80;0.80;;;;;;;9.99;100.00;99275.03;865822;23;20343;-92
2023/12/14 02:04:43;;;;;;;0.60;0.60;;;;;;;9.66;100.00;99233.94;5003370;28;20067;-93
2023/12/14 02:07:09;;;;;;;0.70;0.70;;;;;;;9.97;100.00;99288.41;5005763;28;20130;-93
2023/12/14 02:09:34;;;;;;;0.70;0.70;;;;;;;9.58;100.00;99226.31;4990004;28;20022;-93
2023/12/14 02:12:00;;;;;;;0.80;0.80;;;;;;;9.91;100.00;99283.34;4990540;28;20091;-92
2023/12/14 02:14:26;;;;;;;0.80;0.80;;;;;;;9.93;100.00;99280.63;4989703;28;20114;-93
2023/12/14 02:16:52;;;;;;;0.70;0.70;;;;;;;10.01;100.00;99295.31;4990681;28;20126;-92
2023/12/14 02:19:17;;;;;;;0.70;0.70;;;;;;;9.63;100.00;99242.94;4989510;28;20022;-93
2023/12/14 02:21:43;;;;;;;0.80;0.80;;;;;;;9.55;100.00;99229.09;4990688;28;20023;-93
2023/12/14 02:24:08;;;;;;;0.80;0.80;;;;;;;9.69;100.00;99245.31;4990124;28;20090;-92
2023/12/14 02:26:34;;;;;;;0.80;0.80;;;;;;;9.83;100.00;99266.00;4989868;28;20023;-92
2023/12/14 08:48:38;;;;;;;0.80;0.80;;;;;;;10.32;100.00;99960.34;5128997;23;20052;-91
2023/12/14 10:23:20;;;;;;;0.75;0.75;;;;;;;11.68;100.00;100113.59;1726034;23;20348;-91
2023/12/14 10:36:08;;;;;;;0.60;0.60;;;;;;;11.55;100.00;100104.25;5010316;23;20057;-92
2023/12/14 10:43:44;;;;;;;0.60;0.60;;;;;;;13.26;100.00;100127.91;4969419;23;20042;-92
2023/12/14 10:46:10;;;;;;;0.60;0.60;;;;;;;13.15;100.00;100109.66;4916765;29;20039;-93
2023/12/14 10:48:45;;;;;;;0.65;0.65;;;;;;;13.70;100.00;100126.88;4914652;29;20035;-94
2023/12/14 10:51:15;;;;;;;0.60;0.60;;;;;;;14.35;100.00;100118.59;4909413;29;20032;-93
2023/12/14 10:53:46;;;;;;;0.60;0.60;;;;;;;14.81;98.54;100134.22;4943908;29;20024;-92
2023/12/14 10:56:12;;;;;;;0.50;0.50;;;;;;;14.24;95.59;100107.50;4908075;29;20036;-92
2023/12/14 10:58:50;;;;;;;0.60;0.60;;;;;;;14.01;94.74;100148.66;4909287;29;20031;-93
2023/12/14 11:01:18;;;;;;;0.50;0.50;;;;;;;14.12;97.17;100165.09;5004384;23;20581;-93
2023/12/14 11:03:44;;;;;;;0.50;0.50;;;;;;;14.01;97.81;100154.00;4944489;29;20103;-92
2023/12/14 11:06:30;;;;;;;0.60;0.60;;;;;;;13.75;97.42;100148.06;4952434;28;20197;-90
2023/12/14 11:09:07;;;;;;;0.50;0.50;;;;;;;13.44;98.51;100137.84;4934131;29;20079;-90
2023/12/14 11:11:59;;;;;;;0.60;0.60;;;;;;;13.44;99.81;100158.31;4929759;29;20443;-92
2023/12/14 11:14:26;;;;;;;0.60;0.60;;;;;;;13.11;100.00;100156.09;4932084;29;20600;-91
2023/12/14 11:16:56;;;;;;;0.60;0.60;;;;;;;13.23;100.00;100180.59;4930822;29;20019;-92
2023/12/14 11:19:22;;;;;;;0.60;0.60;;;;;;;12.91;100.00;100177.38;4926781;29;20052;-91
2023/12/14 11:22:18;;;;;;;0.60;0.60;;;;;;;12.69;100.00;100171.13;4909788;29;20143;-93
2023/12/14 11:24:51;;;;;;;0.70;0.70;;;;;;;12.66;100.00;100195.28;4919280;29;20044;-92
2023/12/14 11:27:27;;;;;;;0.50;0.50;;;;;;;12.54;100.00;100190.38;4931300;29;20035;-93
2023/12/14 11:29:53;;;;;;;0.60;0.60;;;;;;;12.48;100.00;100189.75;4933793;29;20363;-93
2023/12/14 11:32:19;;;;;;;0.60;0.60;;;;;;;12.38;100.00;100194.56;4931251;29;20058;-93
2023/12/14 11:34:48;;;;;;;0.60;0.60;;;;;;;12.15;100.00;100183.88;4942072;29;20036;-93
2023/12/14 11:37:14;;;;;;;0.60;0.60;;;;;;;12.16;100.00;100201.59;4937669;28;20023;-93
2023/12/14 11:39:40;;;;;;;0.55;0.55;;;;;;;12.10;100.00;100204.50;4944281;29;20038;-93
2023/12/14 11:42:10;;;;;;;0.60;0.60;;;;;;;11.90;100.00;100196.31;4928700;29;20031;-93
2023/12/14 11:44:37;;;;;;;0.70;0.70;;;;;;;11.83;100.00;100205.44;4926794;29;20059;-93
2023/12/14 11:47:02;;;;;;;0.60;0.60;;;;;;;11.74;100.00;100195.13;4931281;29;20023;-92
2023/12/14 11:49:28;;;;;;;0.60;0.60;;;;;;;11.79;100.00;100209.16;4930289;29;20021;-92
2023/12/14 11:51:56;;;;;;;0.60;0.60;;;;;;;11.88;100.00;100224.81;4930635;29;20118;-91
2023/12/14 11:54:22;;;;;;;0.70;0.70;;;;;;;11.59;100.00;100167.19;4934651;29;20047;-93
2023/12/14 11:56:49;;;;;;;0.70;0.70;;;;;;;11.82;100.00;100220.59;4939129;29;20024;-91
2023/12/14 11:59:17;;;;;;;0.70;0.70;;;;;;;11.55;100.00;100189.50;4950555;29;20020;-93
2023/12/14 12:02:02;;;;;;;0.70;0.70;;;;;;;11.68;100.00;100221.97;4927806;29;20831;-92
2023/12/14 12:04:28;;;;;;;0.75;0.75;;;;;;;11.67;100.00;100212.22;4927844;29;20042;-92
2023/12/14 12:07:04;;;;;;;0.60;0.60;;;;;;;11.87;100.00;100223.09;4926556;29;20028;-91
2023/12/14 12:09:41;;;;;;;0.60;0.60;;;;;;;11.67;100.00;100214.91;4923883;29;20055;-92
2023/12/14 12:12:10;;;;;;;0.70;0.70;;;;;;;11.73;100.00;100220.00;4937990;29;20036;-90
2023/12/14 12:14:37;;;;;;;0.70;0.70;;;;;;;11.79;100.00;100241.13;4943613;29;20027;-93
2023/12/14 12:17:07;;;;;;;0.60;0.60;;;;;;;11.61;100.00;100217.75;4930183;29;20058;-92
2023/12/14 12:19:37;;;;;;;0.60;0.60;;;;;;;11.72;100.00;100252.91;4935849;29;20514;-92
2023/12/14 12:22:03;;;;;;;0.70;0.70;;;;;;;11.52;100.00;100221.59;4938863;29;20034;-92
2023/12/14 12:24:29;;;;;;;0.70;0.70;;;;;;;11.49;100.00;100220.81;4930176;29;20028;-92
2023/12/14 12:26:55;;;;;;;0.60;0.60;;;;;;;11.34;100.00;100208.00;4929209;29;20027;-92
2023/12/14 12:29:22;;;;;;;0.70;0.70;;;;;;;11.49;100.00;100247.44;4938449;29;20507;-92
2023/12/14 12:31:47;;;;;;;0.65;0.65;;;;;;;11.26;100.00;100218.03;4947971;29;20027;-92
2023/12/14 12:34:12;;;;;;;0.60;0.60;;;;;;;11.29;100.00;100217.91;4936777;29;20054;-92
2023/12/14 12:36:38;;;;;;;0.60;0.60;;;;;;;11.39;100.00;100230.91;4937949;29;20093;-92
2023/12/14 12:39:05;;;;;;;0.70;0.70;;;;;;;11.33;100.00;100230.22;4934121;29;20031;-92
2023/12/14 12:41:32;;;;;;;0.70;0.70;;;;;;;11.32;100.00;100228.47;4925328;29;20118;-92
2023/12/14 12:43:59;;;;;;;0.70;0.70;;;;;;;11.37;100.00;100226.53;4907755;29;20028;-92
2023/12/14 12:46:24;;;;;;;0.70;0.70;;;;;;;11.30;100.00;100215.19;4915139;29;20024;-90
2023/12/14 12:48:51;;;;;;;0.63;0.63;;;;;;;11.44;100.00;100234.28;4941497;29;20031;-93
2023/12/14 12:51:16;;;;;;;0.60;0.60;;;;;;;11.11;100.00;100178.56;4925772;29;20091;-92
2023/12/14 12:53:42;;;;;;;0.60;0.60;;;;;;;11.44;100.00;100233.41;4924483;29;20165;-92
2023/12/14 12:56:07;;;;;;;0.70;0.70;;;;;;;11.46;100.00;100228.91;4936595;29;20102;-93
2023/12/14 12:58:33;;;;;;;0.60;0.60;;;;;;;11.37;100.00;100226.53;4923144;29;20032;-92
2023/12/14 13:00:58;;;;;;;0.70;0.70;;;;;;;11.47;100.00;100225.31;4924274;29;20055;-93
2023/12/14 13:03:24;;;;;;;0.50;0.50;;;;;;;11.65;100.00;100260.25;4925342;29;20035;-92
2023/12/14 13:05:49;;;;;;;0.63;0.63;;;;;;;11.55;100.00;100223.25;4926822;29;20027;-92
2023/12/14 13:08:14;;;;;;;0.60;0.60;;;;;;;11.61;100.00;100223.06;4927647;29;20020;-91
2023/12/14 13:10:40;;;;;;;0.63;0.63;;;;;;;11.74;100.00;100248.41;4925799;29;20023;-92
2023/12/14 13:13:08;;;;;;;0.70;0.70;;;;;;;11.77;100.00;100258.97;4927156;29;20024;-91
2023/12/14 13:15:34;;;;;;;0.70;0.70;;;;;;;11.49;100.00;100207.50;4942929;29;20087;-93
2023/12/14 13:18:00;;;;;;;0.60;0.60;;;;;;;11.81;100.00;100255.28;4943908;29;20032;-92
2023/12/14 13:20:25;;;;;;;0.60;0.60;;;;;;;11.93;100.00;100270.84;4927251;29;20035;-93
2023/12/14 13:22:51;;;;;;;0.70;0.70;;;;;;;11.89;100.00;100264.75;4926707;29;20034;-92
2023/12/14 13:25:16;;;;;;;0.60;0.60;;;;;;;11.87;100.00;100265.72;4960421;29;20394;-93
2023/12/14 13:27:42;;;;;;;0.60;0.60;;;;;;;11.90;100.00;100298.50;4945669;29;20117;-92
2023/12/14 13:30:08;;;;;;;0.60;0.60;;;;;;;11.83;100.00;100290.72;4948428;29;20095;-91
2023/12/14 13:32:34;;;;;;;0.60;0.60;;;;;;;11.81;100.00;100298.78;4943403;29;20059;-92
2023/12/14 13:34:59;;;;;;;0.57;0.57;;;;;;;11.51;100.00;100267.81;4942546;29;20024;-92
2023/12/14 13:37:25;;;;;;;0.60;0.60;;;;;;;11.64;100.00;100302.94;4929498;29;20755;-93
2023/12/14 13:39:52;;;;;;;0.60;0.60;;;;;;;11.56;100.00;100307.59;4953810;29;20031;-94
2023/12/14 13:42:19;;;;;;;0.70;0.70;;;;;;;11.56;100.00;100318.25;4946128;29;20027;-92
2023/12/14 13:44:44;;;;;;;0.60;0.60;;;;;;;11.47;100.00;100324.75;4938297;29;20031;-92
2023/12/14 13:47:10;;;;;;;0.70;0.70;;;;;;;11.51;100.00;100317.53;4926720;29;20380;-92
2023/12/14 13:49:37;;;;;;;0.60;0.60;;;;;;;11.39;100.00;100317.91;4921674;29;20034;-92
2023/12/14 13:52:03;;;;;;;0.60;0.60;;;;;;;11.40;100.00;100322.34;4926670;29;20747;-93
2023/12/14 13:54:29;;;;;;;0.70;0.70;;;;;;;11.35;100.00;100319.78;4928691;29;20023;-93
2023/12/14 13:56:54;;;;;;;0.60;0.60;;;;;;;11.32;100.00;100319.88;4928507;29;20028;-91
2023/12/14 13:59:19;;;;;;;0.70;0.70;;;;;;;11.24;100.00;100319.25;4944992;29;20038;-92
2023/12/14 14:01:45;;;;;;;0.70;0.70;;;;;;;11.30;100.00;100323.53;4924182;29;20138;-91
2023/12/14 14:04:10;;;;;;;0.68;0.68;;;;;;;11.23;100.00;100319.31;4922837;29;20351;-92
2023/12/14 14:06:36;;;;;;;0.60;0.60;;;;;;;11.25;100.00;100328.97;4940657;29;20054;-91
2023/12/14 14:09:03;;;;;;;0.60;0.60;;;;;;;11.35;100.00;100326.94;4921854;29;20542;-91
2023/12/14 14:11:29;;;;;;;0.70;0.70;;;;;;;11.40;100.00;100339.16;4941412;29;20031;-92
2023/12/14 14:13:54;;;;;;;0.60;0.60;;;;;;;11.39;100.00;100341.88;4922659;29;20024;-91
2023/12/14 14:16:20;;;;;;;0.70;0.70;;;;;;;11.41;100.00;100361.34;4924383;29;20043;-91
2023/12/14 14:18:46;;;;;;;0.63;0.63;;;;;;;11.24;100.00;100337.00;4924245;29;20509;-93
2023/12/14 14:21:11;;;;;;;0.60;0.60;;;;;;;11.26;100.00;100364.47;4925611;29;20479;-92
2023/12/14 14:23:37;;;;;;;0.60;0.60;;;;;;;11.36;100.00;100395.25;4925335;29;20028;-92
2023/12/14 14:26:02;;;;;;;0.70;0.70;;;;;;;11.37;100.00;100404.97;4926284;29;20655;-91
2023/12/14 14:28:28;;;;;;;0.70;0.70;;;;;;;11.16;100.00;100368.31;4927731;29;20027;-92
2023/12/14 14:30:54;;;;;;;0.60;0.60;;;;;;;11.27;100.00;100396.38;4924947;29;20023;-91
2023/12/14 14:33:19;;;;;;;0.70;0.70;;;;;;;11.31;100.00;100413.13;4924810;29;20026;-92
2023/12/14 14:35:46;;;;;;;0.70;0.70;;;;;;;11.21;100.00;100401.00;4923352;29;20034;-92
2023/12/14 14:38:14;;;;;;;0.68;0.68;;;;;;;11.23;100.00;100408.06;4921752;29;20754;-91
2023/12/14 14:40:41;;;;;;;0.60;0.60;;;;;;;11.17;100.00;100412.69;4921865;29;20064;-91
2023/12/14 14:43:07;;;;;;;0.70;0.70;;;;;;;11.28;100.00;100432.75;4919798;29;20032;-92
2023/12/14 14:45:33;;;;;;;0.70;0.70;;;;;;;11.22;100.00;100434.72;4924741;29;20142;-92
2023/12/14 14:47:59;;;;;;;0.70;0.70;;;;;;;11.14;100.00;100434.94;4921320;29;20055;-91
2023/12/14 14:50:24;;;;;;;0.70;0.70;;;;;;;11.00;100.00;100418.47;4919761;29;20031;-91
2023/12/14 14:52:50;;;;;;;0.70;0.70;;;;;;;10.89;100.00;100399.25;4935901;29;20031;-93
2023/12/14 14:55:15;;;;;;;0.60;0.60;;;;;;;10.91;100.00;100418.72;4940361;29;20106;-90
2023/12/14 14:57:41;;;;;;;0.60;0.60;;;;;;;11.06;100.00;100454.69;4921083;29;20254;-91
2023/12/14 15:00:07;;;;;;;0.63;0.63;;;;;;;10.83;100.00;100419.84;4921105;29;20600;-92
2023/12/14 15:02:33;;;;;;;0.70;0.70;;;;;;;11.05;100.00;100469.81;4922690;29;20054;-92
2023/12/14 15:04:59;;;;;;;0.80;0.80;;;;;;;10.87;100.00;100448.13;4923727;29;20036;-91
2023/12/14 15:07:24;;;;;;;0.68;0.68;;;;;;;11.00;100.00;100484.16;4945698;29;20040;-90
2023/12/14 15:09:49;;;;;;;0.65;0.65;;;;;;;10.54;100.00;100399.34;4944860;29;20111;-91
2023/12/14 15:12:15;;;;;;;0.70;0.70;;;;;;;10.98;100.00;100484.19;4930545;29;20038;-90
2023/12/14 15:14:41;;;;;;;0.60;0.60;;;;;;;10.89;100.00;100475.59;4930074;29;20020;-92
2023/12/14 15:17:06;;;;;;;0.60;0.60;;;;;;;10.84;100.00;100469.50;5249127;23;20032;-91
2023/12/14 15:19:32;;;;;;;0.70;0.70;;;;;;;10.97;100.00;100502.88;4883378;29;20032;-91
2023/12/14 15:21:57;;;;;;;0.70;0.70;;;;;;;10.89;100.00;100504.84;4923071;29;20059;-91
2023/12/14 15:24:23;;;;;;;0.70;0.70;;;;;;;10.95;100.00;100500.25;4924664;29;20016;-90
2023/12/14 15:26:49;;;;;;;0.70;0.70;;;;;;;10.79;100.00;100482.91;4913767;29;20025;-91
2023/12/14 15:29:15;;;;;;;0.70;0.70;;;;;;;11.02;100.00;100527.56;4910999;29;20039;-91
2023/12/14 15:31:40;;;;;;;0.70;0.70;;;;;;;10.95;100.00;100505.56;4913815;29;20385;-91
2023/12/14 15:34:08;;;;;;;0.60;0.60;;;;;;;10.57;100.00;100445.38;4914002;29;20056;-92
2023/12/14 15:36:34;;;;;;;0.70;0.70;;;;;;;10.88;100.00;100519.06;4908882;29;20025;-91
2023/12/14 15:39:00;;;;;;;0.70;0.70;;;;;;;10.90;100.00;100527.88;4886611;29;20024;-93
2023/12/14 15:41:26;;;;;;;0.70;0.70;;;;;;;10.82;100.00;100516.56;4905403;29;20032;-92
2023/12/14 15:43:51;;;;;;;0.70;0.70;;;;;;;10.78;100.00;100525.53;4907367;29;20020;-92
2023/12/14 15:46:16;;;;;;;0.70;0.70;;;;;;;10.70;100.00;100519.53;4921752;29;20380;-91
2023/12/14 15:48:42;;;;;;;0.70;0.70;;;;;;;10.86;100.00;100558.13;4897387;29;20032;-92
2023/12/14 15:51:08;;;;;;;0.70;0.70;;;;;;;10.72;100.00;100539.00;4891968;29;20039;-92
2023/12/14 15:53:33;;;;;;;0.70;0.70;;;;;;;10.53;100.00;100512.84;4895541;29;20048;-92
2023/12/14 15:55:59;;;;;;;0.70;0.70;;;;;;;10.77;100.00;100553.06;4891787;29;20116;-92
2023/12/14 15:58:25;;;;;;;0.70;0.70;;;;;;;10.68;100.00;100543.50;4904718;29;20083;-92
2023/12/14 16:00:51;;;;;;;0.70;0.70;;;;;;;10.75;100.00;100563.75;4905865;29;20565;-93
2023/12/14 16:03:16;;;;;;;0.70;0.70;;;;;;;10.61;100.00;100558.75;4887795;29;20132;-92
2023/12/14 16:05:42;;;;;;;0.70;0.70;;;;;;;10.50;100.00;100550.16;4886785;29;20037;-92
2023/12/14 16:08:08;;;;;;;0.70;0.70;;;;;;;10.63;100.00;100562.25;4886101;29;20024;-93
2023/12/14 16:10:34;;;;;;;0.70;0.70;;;;;;;10.58;100.00;100569.47;4886890;29;20025;-91
2023/12/14 16:12:59;;;;;;;0.77;0.77;;;;;;;10.66;100.00;100579.91;4922706;29;20035;-92
2023/12/14 16:15:24;;;;;;;0.70;0.70;;;;;;;10.73;100.00;100599.25;4922088;29;20028;-92
2023/12/14 16:17:50;;;;;;;0.80;0.80;;;;;;;10.66;100.00;100593.22;4913245;29;20059;-92
2023/12/14 16:20:19;;;;;;;0.70;0.70;;;;;;;10.68;100.00;100593.16;4906329;29;20040;-92
2023/12/14 16:22:46;;;;;;;0.70;0.70;;;;;;;10.61;100.00;100606.63;4916394;29;20028;-93
2023/12/14 16:25:12;;;;;;;0.70;0.70;;;;;;;10.73;100.00;100617.88;4905140;29;20088;-92
2023/12/14 16:27:38;;;;;;;0.80;0.80;;;;;;;10.76;100.00;100620.50;4909747;29;20060;-92
2023/12/14 17:15:31;;;;;;;0.70;0.70;;;;;;;10.29;100.00;100704.88;1364054;23;20329;-93
2023/12/14 17:30:52;;;;;;;0.70;0.70;;;;;;;10.19;100.00;100744.97;5200044;23;20048;-91
2023/12/14 17:33:18;;;;;;;0.70;0.70;;;;;;;10.15;100.00;100744.13;4939227;29;20097;-91
2023/12/14 18:37:14;;;;;;;0.70;0.70;;;;;;;9.06;100.00;100832.69;5147377;23;20575;-89
2023/12/14 18:39:40;;;;;;;0.70;0.70;;;;;;;9.04;100.00;100846.88;4959057;29;20035;-90
2023/12/14 18:42:06;;;;;;;0.60;0.60;;;;;;;9.14;100.00;100864.44;4945509;29;20464;-89
2023/12/14 18:44:32;;;;;;;0.70;0.70;;;;;;;9.04;100.00;100861.00;4945537;29;20031;-89
2023/12/14 18:46:57;;;;;;;0.68;0.68;;;;;;;9.08;100.00;100872.47;4947172;29;20030;-89
2023/12/14 18:49:23;;;;;;;0.60;0.60;;;;;;;8.88;100.00;100842.69;4946844;28;20062;-89
2023/12/14 18:51:48;;;;;;;0.80;0.80;;;;;;;9.11;100.00;100891.00;4966490;28;20693;-89
2023/12/14 18:54:14;;;;;;;0.70;0.70;;;;;;;8.55;100.00;100803.31;4966955;28;20054;-89
2023/12/14 18:56:39;;;;;;;0.77;0.77;;;;;;;9.05;100.00;100904.34;4945265;29;20034;-89
2023/12/14 18:59:05;;;;;;;0.70;0.70;;;;;;;9.03;100.00;100919.41;4944677;29;20062;-89
2023/12/14 19:01:30;;;;;;;0.75;0.75;;;;;;;9.01;100.00;100900.84;4947646;29;20034;-88
2023/12/14 19:03:57;;;;;;;0.80;0.80;;;;;;;9.03;100.00;100909.69;4967490;28;20102;-89
2023/12/14 19:06:23;;;;;;;0.70;0.70;;;;;;;9.14;100.00;100917.53;4950399;29;20074;-89
2023/12/14 19:08:49;;;;;;;0.80;0.80;;;;;;;9.02;100.00;100907.94;4948996;29;20039;-89
2023/12/14 19:11:19;;;;;;;0.80;0.80;;;;;;;9.08;100.00;100926.41;4949749;29;20085;-90
2023/12/14 19:13:46;;;;;;;0.70;0.70;;;;;;;8.83;100.00;100922.28;4950469;29;20105;-89
2023/12/14 19:16:12;;;;;;;0.70;0.70;;;;;;;8.90;100.00;100926.63;4949721;29;20027;-89
2023/12/14 19:18:38;;;;;;;0.80;0.80;;;;;;;8.90;100.00;100933.72;4935535;29;20483;-89
2023/12/14 19:21:03;;;;;;;0.75;0.75;;;;;;;8.66;100.00;100910.13;4932299;29;20062;-88
2023/12/14 19:23:29;;;;;;;0.65;0.65;;;;;;;8.74;100.00;100938.31;4950273;29;20113;-88
2023/12/14 19:25:58;;;;;;;0.70;0.70;;;;;;;8.69;100.00;100934.84;4950947;29;20042;-89
2023/12/14 19:28:26;;;;;;;0.70;0.70;;;;;;;8.73;100.00;100935.69;4969258;28;20019;-89
2023/12/14 19:30:52;;;;;;;0.70;0.70;;;;;;;8.75;100.00;100939.19;4944133;29;20408;-89
2023/12/14 19:33:17;;;;;;;0.73;0.73;;;;;;;8.79;100.00;100946.22;4957500;28;20018;-89
2023/12/14 19:35:44;;;;;;;0.80;0.80;;;;;;;8.90;100.00;100968.19;4968803;28;20026;-89
2023/12/14 19:38:10;;;;;;;0.70;0.70;;;;;;;8.83;100.00;100961.22;4960361;28;20132;-89
2023/12/14 19:40:35;;;;;;;0.80;0.80;;;;;;;8.58;100.00;100930.53;4948927;28;20033;-89
2023/12/14 19:43:00;;;;;;;0.80;0.80;;;;;;;8.71;100.00;100958.69;4952709;29;20035;-88
2023/12/14 19:45:26;;;;;;;0.80;0.80;;;;;;;8.65;100.00;100956.09;4947019;29;20082;-89
2023/12/14 19:47:52;;;;;;;0.80;0.80;;;;;;;8.65;100.00;100961.41;4949616;29;20027;-90
2023/12/14 19:50:17;;;;;;;0.70;0.70;;;;;;;8.64;100.00;100978.19;4952894;29;20027;-88
2023/12/14 19:52:42;;;;;;;0.77;0.77;;;;;;;8.65;100.00;101001.19;4952767;29;20027;-89
2023/12/14 19:55:11;;;;;;;0.60;0.60;;;;;;;8.65;100.00;100990.59;4952011;29;20415;-89
2023/12/14 19:57:37;;;;;;;0.70;0.70;;;;;;;8.54;100.00;100971.22;4951638;29;20023;-89
2023/12/14 20:00:03;;;;;;;0.80;0.80;;;;;;;8.67;100.00;100996.72;4968647;29;20038;-89
2023/12/14 20:02:29;;;;;;;0.60;0.60;;;;;;;8.53;100.00;100988.03;4932142;29;20027;-90
2023/12/14 20:04:54;;;;;;;0.80;0.80;;;;;;;8.59;100.00;100990.63;4929962;29;20036;-90
2023/12/14 20:07:20;;;;;;;0.70;0.70;;;;;;;8.57;100.00;100993.28;4931142;29;20030;-89
2023/12/14 20:09:48;;;;;;;0.70;0.70;;;;;;;8.63;100.00;101013.59;4966288;29;20547;-89
2023/12/14 20:12:14;;;;;;;0.80;0.80;;;;;;;8.66;100.00;101008.25;4949855;29;20053;-89
2023/12/14 20:14:40;;;;;;;0.70;0.70;;;;;;;8.49;100.00;101005.72;4943573;29;20024;-89
2023/12/14 20:17:05;;;;;;;0.70;0.70;;;;;;;8.47;100.00;100996.91;4949056;29;20027;-88
2023/12/14 20:19:31;;;;;;;0.70;0.70;;;;;;;8.59;100.00;101017.13;4948492;29;20034;-89
2023/12/14 20:21:56;;;;;;;0.73;0.73;;;;;;;8.58;100.00;101031.31;4964106;29;20395;-89
2023/12/14 20:24:21;;;;;;;0.63;0.63;;;;;;;8.50;100.00;101023.38;4948843;28;20025;-89
2023/12/14 20:26:47;;;;;;;0.80;0.80;;;;;;;8.56;100.00;101036.63;4965214;28;20114;-89
2023/12/14 20:29:12;;;;;;;0.70;0.70;;;;;;;8.49;100.00;101036.66;4952490;29;20062;-89
2023/12/14 20:31:38;;;;;;;0.77;0.77;;;;;;;8.27;100.00;101008.59;4946364;29;20019;-89
2023/12/14 20:34:03;;;;;;;0.75;0.75;;;;;;;8.53;100.00;101054.31;4954238;28;20086;-89
2023/12/14 20:36:31;;;;;;;0.70;0.70;;;;;;;8.69;100.00;101082.47;4965361;28;20046;-89
2023/12/14 20:38:56;;;;;;;0.80;0.80;;;;;;;8.21;100.00;101011.22;4946263;29;20036;-89
2023/12/14 20:41:22;;;;;;;0.70;0.70;;;;;;;8.07;100.00;101001.59;4944088;29;20083;-89
2023/12/14 20:43:47;;;;;;;0.70;0.70;;;;;;;8.47;100.00;101075.56;4942970;29;20036;-88
2023/12/14 20:46:13;;;;;;;0.80;0.80;;;;;;;8.41;100.00;101070.31;4945376;29;20027;-88
2023/12/14 20:48:39;;;;;;;0.80;0.80;;;;;;;8.28;100.00;101063.34;4961658;29;20027;-89
2023/12/14 20:51:05;;;;;;;0.70;0.70;;;;;;;8.31;100.00;101079.22;4946633;28;20024;-89
2023/12/14 20:53:31;;;;;;;0.70;0.70;;;;;;;8.47;100.00;101107.38;4945534;29;20058;-89
2023/12/14 20:55:56;;;;;;;0.80;0.80;;;;;;;8.36;100.00;101088.91;4947235;29;20031;-89
2023/12/14 20:58:22;;;;;;;0.80;0.80;;;;;;;8.37;100.00;101105.69;4962729;29;20110;-88
2023/12/14 21:00:47;;;;;;;0.70;0.70;;;;;;;8.42;100.00;101117.16;4946433;29;20095;-88
2023/12/14 21:03:13;;;;;;;0.70;0.70;;;;;;;8.40;100.00;101124.22;4946464;29;20058;-89
2023/12/14 21:05:39;;;;;;;0.65;0.65;;;;;;;8.28;100.00;101105.75;4946418;29;20246;-88
2023/12/14 21:08:04;;;;;;;0.80;0.80;;;;;;;8.33;100.00;101119.84;4945421;29;20034;-89
2023/12/14 21:10:30;;;;;;;0.70;0.70;;;;;;;8.25;100.00;101106.66;4945910;29;20034;-88
2023/12/14 21:12:55;;;;;;;0.60;0.60;;;;;;;8.24;100.00;101117.28;4945278;29;20042;-88
2023/12/14 21:15:21;;;;;;;0.68;0.68;;;;;;;8.30;99.97;101133.13;4962470;29;20027;-88
2023/12/14 21:17:46;;;;;;;0.70;0.70;;;;;;;8.20;100.00;101107.53;4944459;29;20063;-88
2023/12/14 21:20:12;;;;;;;0.80;0.80;;;;;;;8.35;100.00;101126.91;4946721;28;20247;-89
2023/12/14 21:22:37;;;;;;;0.70;0.70;;;;;;;8.35;100.00;101139.28;4950976;29;20368;-89
2023/12/14 21:25:04;;;;;;;0.73;0.73;;;;;;;7.87;99.82;101082.94;4960783;28;20023;-88
2023/12/14 21:27:45;;;;;;;0.75;0.75;;;;;;;8.09;100.00;101119.97;4946821;29;20126;-89
2023/12/14 21:30:15;;;;;;;0.70;0.70;;;;;;;8.22;100.00;101149.00;4944883;29;20031;-88
2023/12/14 21:32:46;;;;;;;0.70;0.70;;;;;;;8.23;99.72;101155.22;4931333;29;20074;-88
2023/12/14 21:35:13;;;;;;;0.80;0.80;;;;;;;8.10;99.87;101129.66;4957510;28;20020;-89
2023/12/14 21:37:39;;;;;;;0.70;0.70;;;;;;;8.30;99.74;101172.88;4948997;28;20103;-87
2023/12/14 21:40:06;;;;;;;0.75;0.75;;;;;;;8.13;99.28;101158.78;4960287;29;20035;-88
2023/12/14 21:42:32;;;;;;;0.60;0.60;;;;;;;8.10;99.36;101151.75;4955572;28;20501;-88
2023/12/14 21:44:58;;;;;;;0.80;0.80;;;;;;;8.06;99.62;101157.94;4963776;28;20022;-88
2023/12/14 21:47:23;;;;;;;0.70;0.70;;;;;;;7.94;98.77;101153.56;4946270;28;20018;-88
2023/12/14 21:49:49;;;;;;;0.80;0.80;;;;;;;7.63;98.61;101114.84;4962022;29;20027;-89
2023/12/14 21:52:14;;;;;;;0.63;0.63;;;;;;;7.58;99.31;101116.63;4943503;29;20031;-88
2023/12/14 21:54:40;;;;;;;0.70;0.70;;;;;;;7.64;99.35;101121.03;4942517;29;20063;-88
2023/12/14 21:57:05;;;;;;;0.80;0.80;;;;;;;7.97;99.06;101193.28;4941169;29;20043;-88
2023/12/14 21:59:31;;;;;;;0.80;0.80;;;;;;;7.72;99.50;101173.09;4937364;29;20027;-89
2023/12/14 22:01:57;;;;;;;0.70;0.70;;;;;;;7.68;100.00;101179.25;4944077;29;20074;-88
2023/12/14 22:04:23;;;;;;;0.70;0.70;;;;;;;7.80;99.94;101205.72;4960349;29;20478;-87
2023/12/14 22:06:48;;;;;;;0.73;0.73;;;;;;;7.68;100.00;101191.59;4943926;29;20063;-88
2023/12/14 22:09:15;;;;;;;0.88;0.88;;;;;;;7.51;100.00;101173.09;4961799;29;20031;-88
2023/12/14 22:11:40;;;;;;;0.70;0.70;;;;;;;7.72;100.00;101194.28;4960248;29;20130;-88
2023/12/14 22:14:06;;;;;;;0.70;0.70;;;;;;;7.82;100.00;101206.56;4944903;29;20091;-88
2023/12/14 22:16:32;;;;;;;0.80;0.80;;;;;;;7.73;100.00;101201.31;4943980;29;20020;-88
2023/12/14 22:18:58;;;;;;;0.80;0.80;;;;;;;7.71;100.00;101208.38;4943694;29;20031;-88
2023/12/14 22:21:23;;;;;;;0.80;0.80;;;;;;;7.59;100.00;101187.25;4943713;29;20027;-88
2023/12/14 22:23:49;;;;;;;0.90;0.90;;;;;;;7.73;100.00;101211.91;4946012;29;20034;-88
2023/12/14 22:26:14;;;;;;;0.77;0.77;;;;;;;7.68;100.00;101213.69;4961356;29;20075;-88
2023/12/14 22:28:40;;;;;;;0.80;0.80;;;;;;;7.71;100.00;101208.38;4943926;29;20073;-89
2023/12/14 22:31:05;;;;;;;0.80;0.80;;;;;;;7.76;100.00;101225.13;4961655;29;20038;-88
2023/12/14 22:33:31;;;;;;;0.80;0.80;;;;;;;7.77;100.00;101250.75;4962275;29;20090;-89
2023/12/14 22:35:56;;;;;;;0.80;0.80;;;;;;;7.71;100.00;101218.97;4944830;28;20074;-88
2023/12/14 22:38:21;;;;;;;0.80;0.80;;;;;;;7.84;100.00;101243.69;4942985;29;20055;-88
2023/12/14 22:40:47;;;;;;;0.80;0.80;;;;;;;7.78;100.00;101233.06;4943693;29;20482;-88
2023/12/14 22:43:12;;;;;;;0.70;0.70;;;;;;;7.85;100.00;101232.19;4943946;29;20023;-88
2023/12/14 22:45:38;;;;;;;0.80;0.80;;;;;;;7.81;100.00;101247.19;4942743;29;20108;-88
2023/12/14 22:48:04;;;;;;;0.73;0.73;;;;;;;7.52;100.00;101200.47;4946004;29;20134;-88
2023/12/14 22:50:29;;;;;;;0.70;0.70;;;;;;;7.78;100.00;101254.25;4944073;29;20039;-88
2023/12/14 22:52:54;;;;;;;0.70;0.70;;;;;;;7.86;100.00;101274.56;4961187;29;20050;-88
2023/12/14 22:55:20;;;;;;;0.70;0.70;;;;;;;7.73;100.00;101256.94;4943427;29;20015;-88
2023/12/14 22:57:45;;;;;;;0.63;0.63;;;;;;;7.75;100.00;101272.81;4944917;29;20440;-88
2023/12/14 23:00:21;;;;;;;0.80;0.80;;;;;;;7.77;100.00;101274.59;4943366;29;20023;-88
2023/12/14 23:02:47;;;;;;;0.75;0.75;;;;;;;7.74;100.00;101281.66;4943502;29;20031;-88
2023/12/14 23:05:12;;;;;;;0.80;0.80;;;;;;;7.73;100.00;101275.47;4944278;29;20031;-88
2023/12/14 23:07:40;;;;;;;0.80;0.80;;;;;;;7.71;100.00;101282.53;4960888;29;20046;-88
2023/12/14 23:10:06;;;;;;;0.80;0.80;;;;;;;7.72;100.00;101297.53;4943398;29;20070;-89
2023/12/14 23:12:32;;;;;;;0.75;0.75;;;;;;;7.49;100.00;101250.78;4944633;29;20078;-89
2023/12/14 23:15:03;;;;;;;0.68;0.68;;;;;;;7.69;100.00;101289.56;4944591;29;20026;-89
2023/12/14 23:17:30;;;;;;;0.80;0.80;;;;;;;7.76;100.00;101295.75;4944522;28;20778;-89
2023/12/14 23:19:59;;;;;;;0.70;0.70;;;;;;;7.79;100.00;101306.38;4961310;29;20132;-88
2023/12/14 23:22:25;;;;;;;0.70;0.70;;;;;;;7.91;100.00;101333.72;4943087;29;20778;-88
2023/12/14 23:24:51;;;;;;;0.80;0.80;;;;;;;7.67;100.00;101296.66;4943364;29;20027;-89
2023/12/14 23:27:16;;;;;;;0.70;0.70;;;;;;;7.77;100.00;101302.81;4943280;29;20027;-89